DLH4W KCLT-EDDM
Flight info
| Callsign | DLH4W |
|---|---|
| Flight time | N/A |
| Altitude | 37000 |
| Route | BARMY5 RDU DCT NOWAE Q87 GEARS DCT BBOBO Q22 FOXWD DCT TOPPS/N0483F390 N683B NEEKO/M084F400 NATZ GISTI/N0489F410 DCT BAKUR DCT OKSAW DCT KONAN DCT KOK DCT MATUG DCT MOVUM T109 HAREM/N0485F350 T104 ELMOX/N0479F270 T104 ROKIL |
| Aircraft | A359/H-SDE2E3GHIJ3J4J5LM1ORWXY/LB1D1 |
Departure
| Time | N/A |
|---|---|
| Airport | Charlotte Douglas International Airport (KCLT) |
Arrival
| Time | 2026-05-01 07:34 |
|---|---|
| Airport | Munich Airport (EDDM) |
| Time | Latitude | Longitude | Altitude | Speed | Heading |
|---|---|---|---|---|---|
| 2026-04-30 22:00 | 35.22112 | -80.93904 | 737 ft | 0 kts | 229° |
| 2026-05-01 07:23 | 48.63116 | 11.04886 | 15841 ft | 404 kts | 133° |
| 2026-05-01 07:23 | 48.58345 | 11.09306 | 14229 ft | 409 kts | 154° |
| 2026-05-01 07:24 | 48.55752 | 11.11018 | 13559 ft | 403 kts | 154° |
| 2026-05-01 07:24 | 48.53247 | 11.12657 | 12887 ft | 386 kts | 154° |
| 2026-05-01 07:24 | 48.50874 | 11.14202 | 12265 ft | 358 kts | 154° |
| 2026-05-01 07:24 | 48.48662 | 11.15637 | 11637 ft | 335 kts | 154° |
| 2026-05-01 07:25 | 48.46579 | 11.16985 | 11018 ft | 317 kts | 154° |
| 2026-05-01 07:25 | 48.44600 | 11.18261 | 10420 ft | 303 kts | 154° |
| 2026-05-01 07:25 | 48.42703 | 11.19483 | 9778 ft | 291 kts | 154° |
| 2026-05-01 07:25 | 48.40869 | 11.20663 | 9128 ft | 283 kts | 154° |
| 2026-05-01 07:26 | 48.39076 | 11.21815 | 8593 ft | 278 kts | 154° |
| 2026-05-01 07:26 | 48.37356 | 11.23040 | 8342 ft | 277 kts | 146° |
| 2026-05-01 07:26 | 48.35964 | 11.24986 | 7736 ft | 274 kts | 123° |
| 2026-05-01 07:26 | 48.35032 | 11.27452 | 7039 ft | 268 kts | 115° |
| 2026-05-01 07:27 | 48.34245 | 11.29932 | 6659 ft | 259 kts | 115° |
| 2026-05-01 07:27 | 48.33506 | 11.32290 | 6515 ft | 238 kts | 114° |
| 2026-05-01 07:27 | 48.32837 | 11.34439 | 6382 ft | 217 kts | 114° |
| 2026-05-01 07:27 | 48.32214 | 11.36441 | 6266 ft | 208 kts | 114° |
| 2026-05-01 07:28 | 48.31670 | 11.38437 | 6168 ft | 206 kts | 104° |
| 2026-05-01 07:28 | 48.31598 | 11.40574 | 5947 ft | 205 kts | 86° |
| 2026-05-01 07:28 | 48.31941 | 11.42605 | 5755 ft | 203 kts | 70° |
| 2026-05-01 07:28 | 48.32479 | 11.44562 | 5510 ft | 203 kts | 70° |
| 2026-05-01 07:29 | 48.33044 | 11.46521 | 5328 ft | 205 kts | 69° |
| 2026-05-01 07:29 | 48.33572 | 11.48506 | 5113 ft | 203 kts | 73° |
| 2026-05-01 07:29 | 48.33982 | 11.50479 | 4983 ft | 193 kts | 76° |
| 2026-05-01 07:29 | 48.34311 | 11.52400 | 4802 ft | 188 kts | 81° |
| 2026-05-01 07:30 | 48.34537 | 11.54330 | 4560 ft | 187 kts | 83° |
| 2026-05-01 07:30 | 48.34719 | 11.56289 | 4256 ft | 190 kts | 85° |
| 2026-05-01 07:30 | 48.34860 | 11.58248 | 3931 ft | 184 kts | 86° |
| 2026-05-01 07:30 | 48.34983 | 11.60088 | 3716 ft | 170 kts | 85° |
| 2026-05-01 07:31 | 48.35127 | 11.61752 | 3501 ft | 156 kts | 85° |
| 2026-05-01 07:31 | 48.35457 | 11.65955 | 2910 ft | 121 kts | 87° |
| 2026-05-01 07:32 | 48.35655 | 11.68423 | 2609 ft | 120 kts | 87° |
| 2026-05-01 07:32 | 48.35718 | 11.69688 | 2460 ft | 123 kts | 88° |
| 2026-05-01 07:33 | 48.35942 | 11.72253 | 2108 ft | 123 kts | 85° |
| 2026-05-01 07:33 | 48.36024 | 11.73503 | 1937 ft | 122 kts | 84° |
| 2026-05-01 07:33 | 48.36230 | 11.76078 | 1619 ft | 126 kts | 85° |
| 2026-05-01 07:34 | 48.36325 | 11.77372 | 1488 ft | 122 kts | 84° |
| 2026-05-01 07:34 | 48.36441 | 11.78901 | 1487 ft | 40 kts | 83° |
| 2026-05-01 07:34 | 48.36435 | 11.79292 | 1476 ft | 35 kts | 105° |
| 2026-05-01 07:35 | 48.36348 | 11.79617 | 1480 ft | 28 kts | 113° |
| 2026-05-01 07:35 | 48.36291 | 11.79784 | 1480 ft | 16 kts | 132° |
| 2026-05-01 07:35 | 48.36276 | 11.79802 | 1479 ft | 0 kts | 142° |
| 2026-05-01 07:36 | 48.36275 | 11.79803 | 1479 ft | 1 kts | 142° |
| 2026-05-01 07:36 | 48.36260 | 11.79809 | 1478 ft | 2 kts | 178° |
| 2026-05-01 07:36 | 48.36248 | 11.79796 | 1482 ft | 4 kts | 220° |
| 2026-05-01 07:37 | 48.36226 | 11.79626 | 1488 ft | 15 kts | 264° |
| 2026-05-01 07:37 | 48.36212 | 11.79450 | 1483 ft | 19 kts | 263° |
| 2026-05-01 07:37 | 48.36182 | 11.79324 | 1486 ft | 13 kts | 217° |
| 2026-05-01 07:38 | 48.36090 | 11.79315 | 1488 ft | 15 kts | 174° |
| 2026-05-01 07:38 | 48.35978 | 11.79337 | 1482 ft | 17 kts | 171° |
| 2026-05-01 07:38 | 48.35857 | 11.79380 | 1478 ft | 0 kts | 171° |
| 2026-05-01 07:39 | 48.35852 | 11.79381 | 1480 ft | 3 kts | 171° |
| 2026-05-01 07:39 | 48.35809 | 11.79391 | 1479 ft | 9 kts | 172° |
| 2026-05-01 07:39 | 48.35646 | 11.79420 | 1483 ft | 11 kts | 173° |
| 2026-05-01 07:40 | 48.35574 | 11.79433 | 1485 ft | 10 kts | 173° |
| 2026-05-01 07:40 | 48.35522 | 11.79434 | 1487 ft | 5 kts | 201° |
| 2026-05-01 07:40 | 48.35509 | 11.79401 | 1482 ft | 3 kts | 250° |
| 2026-05-01 07:40 | 48.35505 | 11.79373 | 1481 ft | 2 kts | 257° |
| 2026-05-01 07:41 | 48.35503 | 11.79358 | 1480 ft | 1 kts | 260° |
| 2026-05-01 07:41 | 48.35503 | 11.79354 | 1477 ft | 1 kts | 261° |
| 2026-05-01 07:41 | 48.35498 | 11.79297 | 1488 ft | 1 kts | 263° |
| 2026-05-01 07:42 | 48.35498 | 11.79294 | 1488 ft | 0 kts | 263° |
| 2026-05-01 07:42 | 48.35498 | 11.79293 | 1489 ft | 0 kts | 263° |